WAKK/MKQ METAR and TAF weather

Enter ICAO airport designator
Station Type Date Time Source
WAKK METAR 2023/02/04 02:00 UTC NOAA

WAKK 040200Z 27012KT 9999 BKN016 28/24 Q1007 NOSIG


Station Type Date Time Source
WAKK Decoded METAR 2023/02/04 02:00 UTC NOAA

Merauke / Mopah, Indonesia (WAKK) 08-28S 140-23E 3M
Feb 03, 2023 - 09:00 PM EST / 2023.02.04 0200 UTC
Wind: from the W (270 degrees) at 14 MPH (12 KT):0
Visibility: greater than 7 mile(s):0
Sky conditions: mostly cloudy
Temperature: 82 F (28 C)
Dew Point: 75 F (24 C)
Relative Humidity: 78%
Pressure (altimeter): 29.74 in. Hg (1007 hPa)
ob: WAKK 040200Z 27012KT 9999 BKN016 28/24 Q1007 NOSIG
cycle: 2

Station Type Date Time Source
WAKK TAF 2013/03/11 12:00 UTC NOAA

TAF WAKK 111100Z 1112/1212 34006KT 9999 SCT018
BECMG 1122/1124 30012KT
TEMPO 1200/1202 7000 -RA FEW017CB
BECMG 1208/1210 29006KT

Example: see airport list